Relevés horaires Matro (Suisse)


Relevés horaires à Matro - Vendredi 07 Juin 2019
Heure UTC1 Température [°C] Vent [km/h] Hum. [%] Pres.4 [hPa] Visi. [Km] Nébu. [octa] Préc.5 [mm] Cond.
2m. Res. Ros. Dir.2 Vit. Moy. Raf.3
23:00 5.8 -0 4.9 SSE 46.3 -- 59.3 94 850(-0.2/3h) -- -- -- --
22:00 5.7 -0.5 4.0 SSE 51.9 -- 64.8 89 850(0.1/3h) -- -- -- --
21:00 5.1 -1.1 3.7 SSE 48.2 -- 61.1 91 850(0.4/3h) -- -- -- --
20:00 5.1 -0.9 3.2 SSE 44.4 -- 51.9 87 850(0.6/3h) -- -- -- --
19:00 5.2 -0.6 2.6 S 42.6 -- 55.6 83 850(0.9/3h) -- -- -- --
18:00 5.8 -0.1 1.6 S 48.2 -- 85.2 74 850(0.6/3h) -- -- -- --
17:00 6.1 0.5 3.4 SSE 44.4 -- 75.9 83 850(0.4/3h) -- -- -- --
16:00 6.1 -0.2 3.8 S 57.4 -- 85.2 85 850(-0.2/3h) -- -- -- --
15:00 6.4 0.4 3.9 SSE 53.7 -- 74.1 84 850(-0.4/3h) -- -- -- --
14:00 7.4 2.3 4.0 SSE 42.6 -- 66.7 79 850(-0.1/3h) -- -- -- --
13:00 7.2 2.5 2.6 SSE 35.2 -- 59.3 73 850(0.1/3h) -- -- -- --
12:00 6.7 1.6 2.6 S 38.9 -- 61.1 75 850(0.7/3h) -- -- -- --
11:00 6.0 0.7 3.8 SSE 38.9 -- 53.7 86 850(0.9/3h) -- -- -- --
10:00 5.2 0.5 4.9 S 27.8 -- 48.2 98 850(1.3/3h) -- -- -- --
09:00 5.1 0.2 4.5 SSE 29.6 -- 51.9 96 850(1.2/3h) -- -- -- --
08:00 4.2 -1.4 4.1 S 35.2 -- 46.3 99 850(0.8/3h) -- -- -- --
07:00 4.6 -1.2 4.6 S 38.9 -- 51.9 100 850(0.7/3h) -- -- -- --
06:00 5.1 -0.2 5.1 SSE 35.2 -- 50.0 100 850(0.4/3h) -- -- -- --
05:00 4.8 -0.6 4.7 SSE 35.2 -- 42.6 99 850(0.3/3h) -- -- -- --
04:00 5.1 -0.2 4.2 SSE 35.2 -- 44.4 94 850(-0.2/3h) -- -- -- --
03:00 5.0 -0.1 4.8 SSE 31.5 -- 50.0 99 850(-0.4/3h) -- -- -- --
02:00 5.2 0 3.0 SSE 33.3 -- 42.6 86 850 -- -- -- --
01:00 5.3 0.2 4.7 SE 33.3 -- 50.0 96 850(-0.1/3h) -- -- -- --
00:00 5.3 -0.2 4.8 SE 38.9 -- 59.3 97 850(0.3/3h) -- -- -- --

1 Coordinated Universal Time. Actuellement il est 22:00 locale et 20:00 UTC.

2 Le vent souffle depuis la direction indiquée vers la direction oposée.

3 Les rafales max. sont disponible 40 min après l'heure du relevé.

4 Pour les stations d'altitude (plus de 600m) le géopotentiel du niveau le plus proche de la pression obligatoire est indiqué.

5 Les stations disposant d'un diffuseur peuvent indiquer "trace". Cela signifie que des précipitations ont touchés le sol mais que la quantité est inférieure à 0.1 mm.

Copyright

Les données affichées sur cette page sont la propriété exclusive de Météo Suisse.

Récapitulatif de la journée
Température [°C] Vent [km/h] Ensoleillement4 [h] Precipitations totale5 [mm] Pression [Hpa]
Min1 Max.2 Moy.3 Max. Min Max.
4.6 7.9 0 85.2 8 h 24 min 0 850.0 850.0

1 Température minimale relevée entre 18:00 UTC la veille et 18:00 UTC le jour donné.

2 Température maximale relevée entre 06:00 UTC le jour donné et 06:00 UTC le lendemain.

3 Vent moyen de la journée basé sur les relevés horaires.

4 Ensoleillement en heures relevé entre 06:00 UTC la veille et 06:00 UTC le jour donné.

5 Précipitations totales tombées entre 06:00 UTC la jour donné et 06:00 UTC le lendemain.

Graphiques horaires